sensor_id;sensor_type;location;lat;lon;timestamp;pressure;altitude;pressure_sealevel;temperature;humidity
73516;BME280;61763;51.416;5.442;2023-05-20T00:00:24;102236.00;;;12.17;93.97
73516;BME280;61763;51.416;5.442;2023-05-20T00:02:49;102233.44;;;12.12;95.21
73516;BME280;61763;51.416;5.442;2023-05-20T00:05:15;102233.78;;;12.03;97.08
73516;BME280;61763;51.416;5.442;2023-05-20T00:07:40;102236.72;;;11.95;98.39
73516;BME280;61763;51.416;5.442;2023-05-20T00:10:09;102235.78;;;11.96;99.44
73516;BME280;61763;51.416;5.442;2023-05-20T00:12:36;102227.44;;;12.02;99.94
73516;BME280;61763;51.416;5.442;2023-05-20T00:15:02;102237.56;;;11.97;100.00
73516;BME280;61763;51.416;5.442;2023-05-20T00:17:27;102237.88;;;11.86;100.00
73516;BME280;61763;51.416;5.442;2023-05-20T00:19:53;102227.81;;;11.91;100.00
73516;BME280;61763;51.416;5.442;2023-05-20T00:22:19;102235.91;;;11.91;100.00
73516;BME280;61763;51.416;5.442;2023-05-20T00:24:44;102236.28;;;11.81;100.00
73516;BME280;61763;51.416;5.442;2023-05-20T00:27:10;102226.72;;;11.70;100.00
73516;BME280;61763;51.416;5.442;2023-05-20T00:29:35;102231.31;;;11.67;100.00
73516;BME280;61763;51.416;5.442;2023-05-20T00:32:00;102220.41;;;11.70;100.00
73516;BME280;61763;51.416;5.442;2023-05-20T00:34:26;102226.22;;;11.57;100.00
73516;BME280;61763;51.416;5.442;2023-05-20T00:36:51;102223.63;;;11.54;100.00
73516;BME280;61763;51.416;5.442;2023-05-20T00:39:16;102232.00;;;11.45;100.00
73516;BME280;61763;51.416;5.442;2023-05-20T00:41:42;102232.91;;;11.46;100.00
73516;BME280;61763;51.416;5.442;2023-05-20T00:44:07;102232.09;;;11.42;100.00
73516;BME280;61763;51.416;5.442;2023-05-20T00:46:33;102237.31;;;11.48;100.00
73516;BME280;61763;51.416;5.442;2023-05-20T00:48:59;102233.28;;;11.33;100.00
73516;BME280;61763;51.416;5.442;2023-05-20T00:51:25;102232.41;;;11.33;100.00
73516;BME280;61763;51.416;5.442;2023-05-20T00:53:51;102224.34;;;11.31;100.00
73516;BME280;61763;51.416;5.442;2023-05-20T00:56:17;102222.03;;;11.19;100.00
73516;BME280;61763;51.416;5.442;2023-05-20T00:58:43;102224.03;;;11.12;100.00
73516;BME280;61763;51.416;5.442;2023-05-20T01:01:08;102231.22;;;11.13;100.00
73516;BME280;61763;51.416;5.442;2023-05-20T01:03:34;102219.75;;;11.05;100.00
73516;BME280;61763;51.416;5.442;2023-05-20T01:05:59;102224.31;;;11.03;100.00
73516;BME280;61763;51.416;5.442;2023-05-20T01:08:26;102224.19;;;11.08;100.00
73516;BME280;61763;51.416;5.442;2023-05-20T01:11:13;102212.66;;;11.01;100.00
73516;BME280;61763;51.416;5.442;2023-05-20T01:13:45;102214.53;;;10.99;100.00
73516;BME280;61763;51.416;5.442;2023-05-20T01:16:14;102218.28;;;10.93;100.00
73516;BME280;61763;51.416;5.442;2023-05-20T01:18:42;102210.25;;;10.92;100.00
73516;BME280;61763;51.416;5.442;2023-05-20T01:21:10;102218.53;;;10.85;100.00
73516;BME280;61763;51.416;5.442;2023-05-20T01:23:40;102217.50;;;10.90;100.00
73516;BME280;61763;51.416;5.442;2023-05-20T01:26:05;102221.97;;;10.91;100.00
73516;BME280;61763;51.416;5.442;2023-05-20T01:28:35;102221.13;;;10.89;100.00
73516;BME280;61763;51.416;5.442;2023-05-20T01:31:04;102223.44;;;10.71;100.00
73516;BME280;61763;51.416;5.442;2023-05-20T01:33:30;102219.78;;;10.74;100.00
73516;BME280;61763;51.416;5.442;2023-05-20T01:35:57;102218.09;;;10.69;100.00
73516;BME280;61763;51.416;5.442;2023-05-20T01:38:23;102213.41;;;10.75;100.00
73516;BME280;61763;51.416;5.442;2023-05-20T01:40:50;102217.91;;;10.76;100.00
73516;BME280;61763;51.416;5.442;2023-05-20T01:43:16;102203.56;;;10.74;100.00
73516;BME280;61763;51.416;5.442;2023-05-20T01:45:43;102208.94;;;10.75;100.00
73516;BME280;61763;51.416;5.442;2023-05-20T01:48:10;102202.13;;;10.62;100.00
73516;BME280;61763;51.416;5.442;2023-05-20T01:50:38;102204.16;;;10.54;100.00
73516;BME280;61763;51.416;5.442;2023-05-20T01:53:04;102203.56;;;10.42;100.00
73516;BME280;61763;51.416;5.442;2023-05-20T01:55:32;102201.53;;;10.50;100.00
73516;BME280;61763;51.416;5.442;2023-05-20T01:57:57;102212.16;;;10.57;100.00
73516;BME280;61763;51.416;5.442;2023-05-20T02:00:23;102205.25;;;10.46;100.00
73516;BME280;61763;51.416;5.442;2023-05-20T02:02:48;102201.72;;;10.44;100.00
73516;BME280;61763;51.416;5.442;2023-05-20T02:05:14;102198.31;;;10.36;100.00
73516;BME280;61763;51.416;5.442;2023-05-20T02:07:40;102199.94;;;10.43;100.00
73516;BME280;61763;51.416;5.442;2023-05-20T02:10:05;102195.53;;;10.39;100.00
73516;BME280;61763;51.416;5.442;2023-05-20T02:12:31;102195.72;;;10.31;100.00
73516;BME280;61763;51.416;5.442;2023-05-20T02:14:56;102199.59;;;10.21;100.00
73516;BME280;61763;51.416;5.442;2023-05-20T02:17:22;102203.47;;;10.11;100.00
73516;BME280;61763;51.416;5.442;2023-05-20T02:19:47;102200.78;;;10.11;100.00
73516;BME280;61763;51.416;5.442;2023-05-20T02:22:13;102200.75;;;10.12;100.00
73516;BME280;61763;51.416;5.442;2023-05-20T02:24:39;102193.66;;;10.08;100.00
73516;BME280;61763;51.416;5.442;2023-05-20T02:27:04;102199.03;;;10.08;100.00
73516;BME280;61763;51.416;5.442;2023-05-20T02:29:31;102196.72;;;9.94;100.00
73516;BME280;61763;51.416;5.442;2023-05-20T02:31:56;102200.28;;;9.95;100.00
73516;BME280;61763;51.416;5.442;2023-05-20T02:34:22;102188.16;;;10.11;100.00
73516;BME280;61763;51.416;5.442;2023-05-20T02:36:47;102199.91;;;10.10;100.00
73516;BME280;61763;51.416;5.442;2023-05-20T02:39:13;102201.00;;;10.03;100.00
73516;BME280;61763;51.416;5.442;2023-05-20T02:41:38;102198.59;;;9.92;100.00
73516;BME280;61763;51.416;5.442;2023-05-20T02:44:04;102201.16;;;9.97;100.00
73516;BME280;61763;51.416;5.442;2023-05-20T02:46:30;102206.56;;;9.97;100.00
73516;BME280;61763;51.416;5.442;2023-05-20T02:48:55;102197.50;;;9.98;100.00
73516;BME280;61763;51.416;5.442;2023-05-20T02:51:21;102197.44;;;10.03;100.00
73516;BME280;61763;51.416;5.442;2023-05-20T02:53:46;102203.47;;;10.11;100.00
73516;BME280;61763;51.416;5.442;2023-05-20T02:56:12;102196.88;;;10.23;100.00
73516;BME280;61763;51.416;5.442;2023-05-20T02:58:38;102195.38;;;10.11;100.00
73516;BME280;61763;51.416;5.442;2023-05-20T03:01:04;102198.00;;;10.14;100.00
73516;BME280;61763;51.416;5.442;2023-05-20T03:03:31;102195.34;;;10.12;100.00
73516;BME280;61763;51.416;5.442;2023-05-20T03:05:56;102193.72;;;10.05;100.00
73516;BME280;61763;51.416;5.442;2023-05-20T03:08:22;102190.00;;;10.11;100.00
73516;BME280;61763;51.416;5.442;2023-05-20T03:10:47;102190.00;;;10.11;100.00
73516;BME280;61763;51.416;5.442;2023-05-20T03:13:13;102184.81;;;10.03;100.00
73516;BME280;61763;51.416;5.442;2023-05-20T03:15:42;102184.84;;;10.02;100.00
73516;BME280;61763;51.416;5.442;2023-05-20T03:18:10;102186.50;;;10.07;100.00
73516;BME280;61763;51.416;5.442;2023-05-20T03:20:39;102187.34;;;10.09;100.00
73516;BME280;61763;51.416;5.442;2023-05-20T03:23:06;102181.28;;;9.99;100.00
73516;BME280;61763;51.416;5.442;2023-05-20T03:25:32;102184.03;;;9.98;100.00
73516;BME280;61763;51.416;5.442;2023-05-20T03:27:57;102176.75;;;10.02;100.00
73516;BME280;61763;51.416;5.442;2023-05-20T03:30:23;102180.53;;;9.94;100.00
73516;BME280;61763;51.416;5.442;2023-05-20T03:32:49;102182.28;;;9.97;100.00
73516;BME280;61763;51.416;5.442;2023-05-20T03:35:14;102182.16;;;10.02;100.00
73516;BME280;61763;51.416;5.442;2023-05-20T03:37:40;102178.59;;;9.99;100.00
73516;BME280;61763;51.416;5.442;2023-05-20T03:40:07;102184.78;;;10.05;100.00
73516;BME280;61763;51.416;5.442;2023-05-20T03:42:34;102186.63;;;10.03;100.00
73516;BME280;61763;51.416;5.442;2023-05-20T03:45:00;102186.94;;;9.90;100.00
73516;BME280;61763;51.416;5.442;2023-05-20T03:47:26;102186.94;;;9.90;100.00
73516;BME280;61763;51.416;5.442;2023-05-20T03:49:52;102182.75;;;9.78;100.00
73516;BME280;61763;51.416;5.442;2023-05-20T03:52:17;102179.25;;;9.75;100.00
73516;BME280;61763;51.416;5.442;2023-05-20T03:54:43;102181.53;;;9.90;100.00
73516;BME280;61763;51.416;5.442;2023-05-20T03:57:08;102180.06;;;9.78;100.00
73516;BME280;61763;51.416;5.442;2023-05-20T03:59:35;102185.44;;;9.78;100.00
73516;BME280;61763;51.416;5.442;2023-05-20T04:02:01;102182.75;;;9.78;100.00
73516;BME280;61763;51.416;5.442;2023-05-20T04:04:26;102173.72;;;9.81;100.00
73516;BME280;61763;51.416;5.442;2023-05-20T04:06:51;102183.50;;;9.85;100.00
73516;BME280;61763;51.416;5.442;2023-05-20T04:09:18;102183.63;;;9.79;100.00
73516;BME280;61763;51.416;5.442;2023-05-20T04:11:44;102184.38;;;9.86;100.00
73516;BME280;61763;51.416;5.442;2023-05-20T04:14:09;102187.09;;;9.84;100.00
73516;BME280;61763;51.416;5.442;2023-05-20T04:16:35;102184.16;;;9.93;100.00
73516;BME280;61763;51.416;5.442;2023-05-20T04:19:02;102185.81;;;9.99;100.00
73516;BME280;61763;51.416;5.442;2023-05-20T04:21:27;102192.13;;;9.98;100.00
73516;BME280;61763;51.416;5.442;2023-05-20T04:23:52;102197.56;;;9.96;100.00
73516;BME280;61763;51.416;5.442;2023-05-20T04:26:18;102194.75;;;10.01;100.00
73516;BME280;61763;51.416;5.442;2023-05-20T04:28:45;102188.31;;;10.07;100.00
73516;BME280;61763;51.416;5.442;2023-05-20T04:31:12;102189.06;;;10.12;100.00
73516;BME280;61763;51.416;5.442;2023-05-20T04:33:38;102183.59;;;10.15;100.00
73516;BME280;61763;51.416;5.442;2023-05-20T04:36:11;102180.03;;;10.14;100.00
73516;BME280;61763;51.416;5.442;2023-05-20T04:38:40;102185.16;;;10.24;100.00
73516;BME280;61763;51.416;5.442;2023-05-20T04:41:06;102177.84;;;10.27;100.00
73516;BME280;61763;51.416;5.442;2023-05-20T04:43:32;102183.00;;;10.38;100.00
73516;BME280;61763;51.416;5.442;2023-05-20T04:45:58;102186.47;;;10.42;100.00
73516;BME280;61763;51.416;5.442;2023-05-20T04:48:25;102186.34;;;10.46;100.00
73516;BME280;61763;51.416;5.442;2023-05-20T04:50:51;102192.34;;;10.58;100.00
73516;BME280;61763;51.416;5.442;2023-05-20T04:53:18;102186.69;;;10.65;100.00
73516;BME280;61763;51.416;5.442;2023-05-20T04:55:46;102183.81;;;10.72;100.00
73516;BME280;61763;51.416;5.442;2023-05-20T04:58:12;102182.84;;;10.74;100.00
73516;BME280;61763;51.416;5.442;2023-05-20T05:00:43;102180.16;;;10.74;100.00
73516;BME280;61763;51.416;5.442;2023-05-20T05:03:09;102178.16;;;10.81;100.00
73516;BME280;61763;51.416;5.442;2023-05-20T05:05:36;102174.41;;;10.85;100.00
73516;BME280;61763;51.416;5.442;2023-05-20T05:08:03;102171.56;;;10.91;100.00
73516;BME280;61763;51.416;5.442;2023-05-20T05:10:29;102164.28;;;10.93;100.00
73516;BME280;61763;51.416;5.442;2023-05-20T05:12:54;102163.97;;;11.02;100.00
73516;BME280;61763;51.416;5.442;2023-05-20T05:15:20;102158.53;;;11.04;100.00
73516;BME280;61763;51.416;5.442;2023-05-20T05:17:45;102166.50;;;11.09;100.00
73516;BME280;61763;51.416;5.442;2023-05-20T05:20:10;102166.13;;;11.21;100.00
73516;BME280;61763;51.416;5.442;2023-05-20T05:22:36;102167.63;;;11.30;100.00
73516;BME280;61763;51.416;5.442;2023-05-20T05:25:04;102165.53;;;11.39;100.00
73516;BME280;61763;51.416;5.442;2023-05-20T05:27:29;102157.28;;;11.44;100.00
73516;BME280;61763;51.416;5.442;2023-05-20T05:29:55;102164.13;;;11.54;100.00
73516;BME280;61763;51.416;5.442;2023-05-20T05:32:20;102168.34;;;11.63;100.00
73516;BME280;61763;51.416;5.442;2023-05-20T05:34:46;102165.38;;;11.71;100.00
73516;BME280;61763;51.416;5.442;2023-05-20T05:37:11;102163.25;;;11.81;100.00
73516;BME280;61763;51.416;5.442;2023-05-20T05:39:36;102160.16;;;11.93;100.00
73516;BME280;61763;51.416;5.442;2023-05-20T05:42:02;102161.59;;;12.03;100.00
73516;BME280;61763;51.416;5.442;2023-05-20T05:44:28;102159.44;;;12.13;100.00
73516;BME280;61763;51.416;5.442;2023-05-20T05:46:53;102149.66;;;12.34;100.00
73516;BME280;61763;51.416;5.442;2023-05-20T05:49:19;102157.59;;;12.39;100.00
73516;BME280;61763;51.416;5.442;2023-05-20T05:51:44;102162.66;;;12.48;100.00
73516;BME280;61763;51.416;5.442;2023-05-20T05:54:10;102153.97;;;12.64;100.00
73516;BME280;61763;51.416;5.442;2023-05-20T05:56:35;102169.88;;;12.73;100.00
73516;BME280;61763;51.416;5.442;2023-05-20T05:59:00;102153.38;;;12.79;100.00
73516;BME280;61763;51.416;5.442;2023-05-20T06:01:26;102166.34;;;12.94;100.00
73516;BME280;61763;51.416;5.442;2023-05-20T06:03:51;102158.16;;;12.96;100.00
73516;BME280;61763;51.416;5.442;2023-05-20T06:06:17;102161.31;;;13.07;100.00
73516;BME280;61763;51.416;5.442;2023-05-20T06:08:42;102161.69;;;13.20;100.00
73516;BME280;61763;51.416;5.442;2023-05-20T06:11:08;102162.06;;;13.33;100.00
73516;BME280;61763;51.416;5.442;2023-05-20T06:13:34;102152.97;;;13.36;100.00
73516;BME280;61763;51.416;5.442;2023-05-20T06:15:59;102153.47;;;13.45;100.00
73516;BME280;61763;51.416;5.442;2023-05-20T06:18:25;102140.28;;;13.58;100.00
73516;BME280;61763;51.416;5.442;2023-05-20T06:20:57;102139.81;;;13.69;100.00
73516;BME280;61763;51.416;5.442;2023-05-20T06:23:24;102134.81;;;13.80;100.00
73516;BME280;61763;51.416;5.442;2023-05-20T06:25:50;102134.53;;;13.87;100.00
73516;BME280;61763;51.416;5.442;2023-05-20T06:28:16;102127.38;;;13.86;100.00
73516;BME280;61763;51.416;5.442;2023-05-20T06:30:41;102124.66;;;13.86;100.00
73516;BME280;61763;51.416;5.442;2023-05-20T06:33:07;102129.38;;;14.01;100.00
73516;BME280;61763;51.416;5.442;2023-05-20T06:35:32;102120.81;;;14.10;100.00
73516;BME280;61763;51.416;5.442;2023-05-20T06:37:59;102122.00;;;14.25;100.00
73516;BME280;61763;51.416;5.442;2023-05-20T06:40:26;102132.50;;;14.33;100.00
73516;BME280;61763;51.416;5.442;2023-05-20T06:42:51;102123.03;;;14.42;100.00
73516;BME280;61763;51.416;5.442;2023-05-20T06:45:17;102117.63;;;14.61;100.00
73516;BME280;61763;51.416;5.442;2023-05-20T06:47:43;102115.94;;;14.58;100.00
73516;BME280;61763;51.416;5.442;2023-05-20T06:50:09;102104.16;;;14.78;100.00
73516;BME280;61763;51.416;5.442;2023-05-20T06:52:35;102106.28;;;14.91;100.00
73516;BME280;61763;51.416;5.442;2023-05-20T06:55:00;102106.56;;;15.03;97.84
73516;BME280;61763;51.416;5.442;2023-05-20T06:57:26;102109.38;;;15.02;97.21
73516;BME280;61763;51.416;5.442;2023-05-20T06:59:51;102105.03;;;14.98;95.46
73516;BME280;61763;51.416;5.442;2023-05-20T07:02:16;102099.34;;;15.02;95.27
73516;BME280;61763;51.416;5.442;2023-05-20T07:04:42;102111.38;;;15.16;94.70
73516;BME280;61763;51.416;5.442;2023-05-20T07:07:07;102118.38;;;15.21;92.96
73516;BME280;61763;51.416;5.442;2023-05-20T07:09:33;102101.41;;;15.34;93.19
73516;BME280;61763;51.416;5.442;2023-05-20T07:11:58;102103.53;;;15.46;90.42
73516;BME280;61763;51.416;5.442;2023-05-20T07:14:23;102101.78;;;15.63;88.57
73516;BME280;61763;51.416;5.442;2023-05-20T07:16:49;102093.63;;;15.63;89.18
73516;BME280;61763;51.416;5.442;2023-05-20T07:19:14;102099.03;;;15.82;88.57
73516;BME280;61763;51.416;5.442;2023-05-20T07:21:40;102102.69;;;15.98;87.07
73516;BME280;61763;51.416;5.442;2023-05-20T07:24:05;102093.84;;;16.10;86.02
73516;BME280;61763;51.416;5.442;2023-05-20T07:26:31;102093.63;;;16.15;84.34
73516;BME280;61763;51.416;5.442;2023-05-20T07:29:00;102095.03;;;16.22;80.71
73516;BME280;61763;51.416;5.442;2023-05-20T07:31:26;102088.97;;;16.17;81.28
73516;BME280;61763;51.416;5.442;2023-05-20T07:33:51;102085.97;;;16.22;80.14
73516;BME280;61763;51.416;5.442;2023-05-20T07:36:16;102073.88;;;16.27;81.14
73516;BME280;61763;51.416;5.442;2023-05-20T07:38:42;102081.34;;;16.40;80.03
73516;BME280;61763;51.416;5.442;2023-05-20T07:41:07;102082.53;;;16.36;78.12
73516;BME280;61763;51.416;5.442;2023-05-20T07:43:33;102078.56;;;16.41;76.08
73516;BME280;61763;51.416;5.442;2023-05-20T07:45:58;102077.19;;;16.66;75.44
73516;BME280;61763;51.416;5.442;2023-05-20T07:48:23;102070.59;;;16.70;74.96
73516;BME280;61763;51.416;5.442;2023-05-20T07:50:49;102069.09;;;16.80;74.04
73516;BME280;61763;51.416;5.442;2023-05-20T07:53:14;102065.78;;;17.07;74.02
73516;BME280;61763;51.416;5.442;2023-05-20T07:55:39;102068.69;;;17.04;74.63
73516;BME280;61763;51.416;5.442;2023-05-20T07:58:05;102064.81;;;17.08;74.72
73516;BME280;61763;51.416;5.442;2023-05-20T08:00:30;102070.69;;;17.16;71.66
73516;BME280;61763;51.416;5.442;2023-05-20T08:02:55;102069.13;;;17.12;70.35
73516;BME280;61763;51.416;5.442;2023-05-20T08:05:21;102064.97;;;17.21;69.00
73516;BME280;61763;51.416;5.442;2023-05-20T08:07:47;102062.81;;;17.73;67.20
73516;BME280;61763;51.416;5.442;2023-05-20T08:10:12;102051.47;;;17.64;68.65
73516;BME280;61763;51.416;5.442;2023-05-20T08:12:38;102058.66;;;17.96;68.07
73516;BME280;61763;51.416;5.442;2023-05-20T08:15:04;102055.19;;;18.08;68.13
73516;BME280;61763;51.416;5.442;2023-05-20T08:17:30;102050.00;;;18.47;67.70
73516;BME280;61763;51.416;5.442;2023-05-20T08:19:56;102045.09;;;18.66;65.16
73516;BME280;61763;51.416;5.442;2023-05-20T08:22:21;102054.31;;;18.36;60.59
73516;BME280;61763;51.416;5.442;2023-05-20T08:24:46;102046.41;;;18.32;60.03
73516;BME280;61763;51.416;5.442;2023-05-20T08:27:12;102050.47;;;17.96;59.72
73516;BME280;61763;51.416;5.442;2023-05-20T08:29:37;102050.16;;;17.86;60.03
73516;BME280;61763;51.416;5.442;2023-05-20T08:32:03;102043.19;;;17.96;60.23
73516;BME280;61763;51.416;5.442;2023-05-20T08:34:28;102049.94;;;17.75;60.31
73516;BME280;61763;51.416;5.442;2023-05-20T08:36:54;102040.75;;;18.35;59.79
73516;BME280;61763;51.416;5.442;2023-05-20T08:39:19;102040.94;;;18.03;59.59
73516;BME280;61763;51.416;5.442;2023-05-20T08:41:46;102039.16;;;18.16;58.40
73516;BME280;61763;51.416;5.442;2023-05-20T08:44:11;102040.97;;;17.87;60.56
73516;BME280;61763;51.416;5.442;2023-05-20T08:46:37;102053.53;;;18.06;59.97
73516;BME280;61763;51.416;5.442;2023-05-20T08:49:03;102037.38;;;17.86;59.96
73516;BME280;61763;51.416;5.442;2023-05-20T08:51:31;102033.03;;;18.13;60.39
73516;BME280;61763;51.416;5.442;2023-05-20T08:53:58;102039.22;;;17.72;61.45
73516;BME280;61763;51.416;5.442;2023-05-20T08:56:24;102022.34;;;17.79;61.47
73516;BME280;61763;51.416;5.442;2023-05-20T08:58:51;102025.63;;;18.29;60.71
73516;BME280;61763;51.416;5.442;2023-05-20T09:01:17;102026.44;;;18.73;59.36
73516;BME280;61763;51.416;5.442;2023-05-20T09:03:43;102023.78;;;18.71;57.97
73516;BME280;61763;51.416;5.442;2023-05-20T09:06:08;102028.44;;;18.84;57.89
73516;BME280;61763;51.416;5.442;2023-05-20T09:08:34;102023.63;;;18.60;57.66
73516;BME280;61763;51.416;5.442;2023-05-20T09:11:00;102016.59;;;19.25;56.80
73516;BME280;61763;51.416;5.442;2023-05-20T09:13:26;102028.25;;;19.54;56.18
73516;BME280;61763;51.416;5.442;2023-05-20T09:15:54;102014.44;;;19.43;55.42
73516;BME280;61763;51.416;5.442;2023-05-20T09:18:19;102028.75;;;19.34;54.97
73516;BME280;61763;51.416;5.442;2023-05-20T09:20:47;102011.63;;;19.57;54.35
73516;BME280;61763;51.416;5.442;2023-05-20T09:23:12;102000.44;;;19.07;54.18
73516;BME280;61763;51.416;5.442;2023-05-20T09:25:37;101999.50;;;19.21;54.69
73516;BME280;61763;51.416;5.442;2023-05-20T09:28:05;102003.34;;;18.91;54.82
73516;BME280;61763;51.416;5.442;2023-05-20T09:30:31;102020.97;;;19.28;56.16
73516;BME280;61763;51.416;5.442;2023-05-20T09:32:57;101995.56;;;19.13;55.04
73516;BME280;61763;51.416;5.442;2023-05-20T09:35:24;102010.28;;;19.50;54.49
73516;BME280;61763;51.416;5.442;2023-05-20T09:37:51;102014.03;;;19.75;53.74
73516;BME280;61763;51.416;5.442;2023-05-20T09:40:21;102016.22;;;19.57;53.60
73516;BME280;61763;51.416;5.442;2023-05-20T09:45:17;102020.75;;;18.90;56.40
73516;BME280;61763;51.416;5.442;2023-05-20T09:47:43;102012.16;;;18.68;57.84
73516;BME280;61763;51.416;5.442;2023-05-20T09:50:09;102025.66;;;19.13;57.58
73516;BME280;61763;51.416;5.442;2023-05-20T09:52:36;102006.81;;;19.21;56.25
73516;BME280;61763;51.416;5.442;2023-05-20T09:55:04;102005.50;;;19.14;56.42
73516;BME280;61763;51.416;5.442;2023-05-20T09:57:33;102001.47;;;19.85;55.50
73516;BME280;61763;51.416;5.442;2023-05-20T09:59:58;101994.56;;;19.80;55.69
73516;BME280;61763;51.416;5.442;2023-05-20T10:02:23;101989.50;;;19.99;55.16
73516;BME280;61763;51.416;5.442;2023-05-20T10:04:50;101997.94;;;20.22;55.25
73516;BME280;61763;51.416;5.442;2023-05-20T10:15:09;101972.97;;;19.75;53.68
73516;BME280;61763;51.416;5.442;2023-05-20T10:17:45;101970.59;;;19.83;52.72
73516;BME280;61763;51.416;5.442;2023-05-20T10:20:14;101965.72;;;20.12;51.81
73516;BME280;61763;51.416;5.442;2023-05-20T10:22:40;101967.06;;;19.81;52.19
73516;BME280;61763;51.416;5.442;2023-05-20T10:25:10;101970.22;;;20.01;51.34
73516;BME280;61763;51.416;5.442;2023-05-20T10:27:46;101958.91;;;20.68;50.23
73516;BME280;61763;51.416;5.442;2023-05-20T10:30:19;101953.94;;;20.97;49.65
73516;BME280;61763;51.416;5.442;2023-05-20T10:32:52;101958.38;;;20.26;49.99
73516;BME280;61763;51.416;5.442;2023-05-20T10:35:23;101954.88;;;20.85;49.04
73516;BME280;61763;51.416;5.442;2023-05-20T10:37:54;101943.59;;;21.37;48.57
73516;BME280;61763;51.416;5.442;2023-05-20T10:40:21;101940.31;;;21.31;47.75
73516;BME280;61763;51.416;5.442;2023-05-20T10:42:47;101951.34;;;21.43;47.21
73516;BME280;61763;51.416;5.442;2023-05-20T10:45:26;101954.53;;;20.90;48.24
73516;BME280;61763;51.416;5.442;2023-05-20T10:47:53;101953.78;;;20.13;50.38
73516;BME280;61763;51.416;5.442;2023-05-20T10:50:35;101953.78;;;20.01;51.25
73516;BME280;61763;51.416;5.442;2023-05-20T10:53:03;101949.75;;;19.42;53.19
73516;BME280;61763;51.416;5.442;2023-05-20T10:55:47;101940.53;;;19.69;52.84
73516;BME280;61763;51.416;5.442;2023-05-20T10:58:13;101946.56;;;19.74;53.39
73516;BME280;61763;51.416;5.442;2023-05-20T11:00:39;101935.47;;;19.37;53.14
73516;BME280;61763;51.416;5.442;2023-05-20T11:03:05;101940.44;;;19.70;54.03
73516;BME280;61763;51.416;5.442;2023-05-20T11:05:32;101935.06;;;19.56;55.24
73516;BME280;61763;51.416;5.442;2023-05-20T11:08:05;101935.06;;;19.56;54.10
73516;BME280;61763;51.416;5.442;2023-05-20T11:10:35;101930.38;;;19.97;53.16
73516;BME280;61763;51.416;5.442;2023-05-20T11:13:02;101927.94;;;19.92;53.21
73516;BME280;61763;51.416;5.442;2023-05-20T11:15:27;101918.81;;;20.65;53.75
73516;BME280;61763;51.416;5.442;2023-05-20T11:17:56;101924.66;;;21.09;50.61
73516;BME280;61763;51.416;5.442;2023-05-20T11:20:23;101925.56;;;21.10;50.31
73516;BME280;61763;51.416;5.442;2023-05-20T11:22:55;101911.91;;;20.97;50.69
73516;BME280;61763;51.416;5.442;2023-05-20T11:25:21;101912.09;;;20.58;50.89
73516;BME280;61763;51.416;5.442;2023-05-20T11:27:49;101909.22;;;21.20;51.28
73516;BME280;61763;51.416;5.442;2023-05-20T11:30:16;101902.91;;;21.42;49.05
73516;BME280;61763;51.416;5.442;2023-05-20T11:33:02;101910.53;;;21.38;49.43
73516;BME280;61763;51.416;5.442;2023-05-20T11:35:30;101908.25;;;21.43;49.55
73516;BME280;61763;51.416;5.442;2023-05-20T11:38:00;101909.44;;;21.52;48.99
73516;BME280;61763;51.416;5.442;2023-05-20T11:40:26;101902.25;;;21.27;48.89
73516;BME280;61763;51.416;5.442;2023-05-20T11:42:55;101904.16;;;20.91;50.11
73516;BME280;61763;51.416;5.442;2023-05-20T11:45:22;101910.69;;;20.53;50.94
73516;BME280;61763;51.416;5.442;2023-05-20T11:48:03;101896.03;;;20.65;50.98
73516;BME280;61763;51.416;5.442;2023-05-20T11:50:34;101900.63;;;20.77;50.75
73516;BME280;61763;51.416;5.442;2023-05-20T11:53:02;101901.66;;;20.88;50.84
73516;BME280;61763;51.416;5.442;2023-05-20T11:55:27;101898.66;;;20.91;51.67
73516;BME280;61763;51.416;5.442;2023-05-20T11:57:53;101906.09;;;21.13;50.78
73516;BME280;61763;51.416;5.442;2023-05-20T12:00:19;101898.06;;;20.50;51.42
73516;BME280;61763;51.416;5.442;2023-05-20T12:02:45;101886.78;;;20.79;51.74
73516;BME280;61763;51.416;5.442;2023-05-20T12:05:10;101893.19;;;21.49;49.77
73516;BME280;61763;51.416;5.442;2023-05-20T12:07:36;101874.72;;;20.93;50.72
73516;BME280;61763;51.416;5.442;2023-05-20T12:10:02;101878.31;;;21.40;50.02
73516;BME280;61763;51.416;5.442;2023-05-20T12:12:28;101867.66;;;21.24;50.21
73516;BME280;61763;51.416;5.442;2023-05-20T12:14:53;101873.31;;;20.87;50.77
73516;BME280;61763;51.416;5.442;2023-05-20T12:17:18;101882.31;;;20.65;51.67
73516;BME280;61763;51.416;5.442;2023-05-20T12:19:44;101867.41;;;20.69;51.38
73516;BME280;61763;51.416;5.442;2023-05-20T12:22:09;101868.97;;;20.96;50.93
73516;BME280;61763;51.416;5.442;2023-05-20T12:24:35;101871.91;;;21.17;49.77
73516;BME280;61763;51.416;5.442;2023-05-20T12:27:00;101870.25;;;21.61;49.01
73516;BME280;61763;51.416;5.442;2023-05-20T12:29:28;101874.13;;;21.59;48.95
73516;BME280;61763;51.416;5.442;2023-05-20T12:31:53;101871.75;;;21.54;49.05
73516;BME280;61763;51.416;5.442;2023-05-20T12:34:19;101859.38;;;21.71;49.15
73516;BME280;61763;51.416;5.442;2023-05-20T12:36:44;101873.66;;;21.18;49.38
73516;BME280;61763;51.416;5.442;2023-05-20T12:39:10;101863.41;;;21.09;49.86
73516;BME280;61763;51.416;5.442;2023-05-20T12:41:36;101879.28;;;21.39;50.18
73516;BME280;61763;51.416;5.442;2023-05-20T12:44:02;101865.69;;;21.26;49.79
73516;BME280;61763;51.416;5.442;2023-05-20T12:46:27;101860.28;;;21.72;49.76
73516;BME280;61763;51.416;5.442;2023-05-20T12:48:53;101869.34;;;21.38;50.05
73516;BME280;61763;51.416;5.442;2023-05-20T12:51:18;101873.41;;;21.21;50.86